sensor_id;sensor_type;location;lat;lon;timestamp;P1;durP1;ratioP1;P2;durP2;ratioP2
8462;SDS011;4268;52.506;13.462;2023-04-24T00:00:36;7.57;;;7.07;;
8462;SDS011;4268;52.506;13.462;2023-04-24T00:03:05;6.90;;;6.50;;
8462;SDS011;4268;52.506;13.462;2023-04-24T00:05:31;7.80;;;7.20;;
8462;SDS011;4268;52.506;13.462;2023-04-24T00:07:57;7.43;;;6.93;;
8462;SDS011;4268;52.506;13.462;2023-04-24T00:10:23;8.27;;;7.67;;
8462;SDS011;4268;52.506;13.462;2023-04-24T00:12:48;8.70;;;8.17;;
8462;SDS011;4268;52.506;13.462;2023-04-24T00:15:14;9.00;;;8.40;;
8462;SDS011;4268;52.506;13.462;2023-04-24T00:17:40;9.50;;;8.97;;
8462;SDS011;4268;52.506;13.462;2023-04-24T00:20:05;9.50;;;8.83;;
8462;SDS011;4268;52.506;13.462;2023-04-24T00:22:32;9.63;;;9.07;;
8462;SDS011;4268;52.506;13.462;2023-04-24T00:24:57;10.17;;;9.37;;
8462;SDS011;4268;52.506;13.462;2023-04-24T00:27:23;9.57;;;8.87;;
8462;SDS011;4268;52.506;13.462;2023-04-24T00:29:49;9.43;;;8.73;;
8462;SDS011;4268;52.506;13.462;2023-04-24T00:32:14;9.37;;;8.77;;
8462;SDS011;4268;52.506;13.462;2023-04-24T00:34:40;9.07;;;8.47;;
8462;SDS011;4268;52.506;13.462;2023-04-24T00:37:06;9.23;;;8.67;;
8462;SDS011;4268;52.506;13.462;2023-04-24T00:39:32;9.43;;;8.83;;
8462;SDS011;4268;52.506;13.462;2023-04-24T00:41:57;8.03;;;7.50;;
8462;SDS011;4268;52.506;13.462;2023-04-24T00:44:23;8.53;;;8.00;;
8462;SDS011;4268;52.506;13.462;2023-04-24T00:46:49;8.20;;;7.70;;
8462;SDS011;4268;52.506;13.462;2023-04-24T00:49:19;8.77;;;8.13;;
8462;SDS011;4268;52.506;13.462;2023-04-24T00:51:48;8.10;;;7.60;;
8462;SDS011;4268;52.506;13.462;2023-04-24T00:54:16;8.53;;;8.03;;
8462;SDS011;4268;52.506;13.462;2023-04-24T00:56:42;8.73;;;8.23;;
8462;SDS011;4268;52.506;13.462;2023-04-24T00:59:09;9.77;;;9.17;;
8462;SDS011;4268;52.506;13.462;2023-04-24T01:01:35;10.33;;;9.63;;
8462;SDS011;4268;52.506;13.462;2023-04-24T01:04:01;9.70;;;9.10;;
8462;SDS011;4268;52.506;13.462;2023-04-24T01:06:27;9.80;;;9.10;;
8462;SDS011;4268;52.506;13.462;2023-04-24T01:08:53;9.60;;;9.00;;
8462;SDS011;4268;52.506;13.462;2023-04-24T01:11:21;9.13;;;8.53;;
8462;SDS011;4268;52.506;13.462;2023-04-24T01:13:47;8.53;;;7.93;;
8462;SDS011;4268;52.506;13.462;2023-04-24T01:16:13;9.33;;;8.73;;
8462;SDS011;4268;52.506;13.462;2023-04-24T01:18:40;7.73;;;7.23;;
8462;SDS011;4268;52.506;13.462;2023-04-24T01:21:06;8.00;;;7.40;;
8462;SDS011;4268;52.506;13.462;2023-04-24T01:23:33;7.90;;;7.40;;
8462;SDS011;4268;52.506;13.462;2023-04-24T01:25:59;8.93;;;8.43;;
8462;SDS011;4268;52.506;13.462;2023-04-24T01:28:25;9.23;;;8.63;;
8462;SDS011;4268;52.506;13.462;2023-04-24T01:30:51;8.37;;;7.77;;
8462;SDS011;4268;52.506;13.462;2023-04-24T01:33:17;8.20;;;7.70;;
8462;SDS011;4268;52.506;13.462;2023-04-24T01:35:43;8.67;;;7.97;;
8462;SDS011;4268;52.506;13.462;2023-04-24T01:38:08;8.27;;;7.57;;
8462;SDS011;4268;52.506;13.462;2023-04-24T01:40:34;7.93;;;7.43;;
8462;SDS011;4268;52.506;13.462;2023-04-24T01:43:00;8.87;;;8.17;;
8462;SDS011;4268;52.506;13.462;2023-04-24T01:45:25;8.67;;;8.17;;
8462;SDS011;4268;52.506;13.462;2023-04-24T01:47:51;9.97;;;9.20;;
8462;SDS011;4268;52.506;13.462;2023-04-24T01:50:17;9.93;;;9.33;;
8462;SDS011;4268;52.506;13.462;2023-04-24T01:52:43;9.87;;;9.37;;
8462;SDS011;4268;52.506;13.462;2023-04-24T01:55:09;10.37;;;9.67;;
8462;SDS011;4268;52.506;13.462;2023-04-24T01:57:35;10.60;;;9.90;;
8462;SDS011;4268;52.506;13.462;2023-04-24T02:00:00;9.27;;;8.63;;
8462;SDS011;4268;52.506;13.462;2023-04-24T02:02:29;9.77;;;9.07;;
8462;SDS011;4268;52.506;13.462;2023-04-24T02:04:54;9.67;;;8.97;;
8462;SDS011;4268;52.506;13.462;2023-04-24T02:07:20;9.40;;;8.70;;
8462;SDS011;4268;52.506;13.462;2023-04-24T02:09:46;8.77;;;8.17;;
8462;SDS011;4268;52.506;13.462;2023-04-24T02:12:11;9.17;;;8.57;;
8462;SDS011;4268;52.506;13.462;2023-04-24T02:14:37;8.33;;;7.73;;
8462;SDS011;4268;52.506;13.462;2023-04-24T02:17:02;9.17;;;8.47;;
8462;SDS011;4268;52.506;13.462;2023-04-24T02:19:28;8.73;;;8.17;;
8462;SDS011;4268;52.506;13.462;2023-04-24T02:21:54;8.60;;;7.97;;
8462;SDS011;4268;52.506;13.462;2023-04-24T02:24:19;8.47;;;7.90;;
8462;SDS011;4268;52.506;13.462;2023-04-24T02:26:45;8.37;;;7.83;;
8462;SDS011;4268;52.506;13.462;2023-04-24T02:29:10;7.93;;;7.43;;
8462;SDS011;4268;52.506;13.462;2023-04-24T02:31:36;8.47;;;7.87;;
8462;SDS011;4268;52.506;13.462;2023-04-24T02:34:01;8.43;;;7.67;;
8462;SDS011;4268;52.506;13.462;2023-04-24T02:36:27;8.23;;;7.63;;
8462;SDS011;4268;52.506;13.462;2023-04-24T02:38:52;8.27;;;7.77;;
8462;SDS011;4268;52.506;13.462;2023-04-24T02:41:18;8.50;;;8.00;;
8462;SDS011;4268;52.506;13.462;2023-04-24T02:43:44;8.80;;;8.10;;
8462;SDS011;4268;52.506;13.462;2023-04-24T02:46:10;8.77;;;8.23;;
8462;SDS011;4268;52.506;13.462;2023-04-24T02:48:35;9.37;;;8.60;;
8462;SDS011;4268;52.506;13.462;2023-04-24T02:51:01;9.13;;;8.53;;
8462;SDS011;4268;52.506;13.462;2023-04-24T02:53:26;8.50;;;8.00;;
8462;SDS011;4268;52.506;13.462;2023-04-24T02:55:52;9.97;;;9.27;;
8462;SDS011;4268;52.506;13.462;2023-04-24T02:58:17;9.37;;;8.67;;
8462;SDS011;4268;52.506;13.462;2023-04-24T03:00:44;9.23;;;8.63;;
8462;SDS011;4268;52.506;13.462;2023-04-24T03:03:10;8.70;;;8.07;;
8462;SDS011;4268;52.506;13.462;2023-04-24T03:05:36;9.30;;;8.60;;
8462;SDS011;4268;52.506;13.462;2023-04-24T03:08:01;7.83;;;7.33;;
8462;SDS011;4268;52.506;13.462;2023-04-24T03:10:27;7.57;;;7.07;;
8462;SDS011;4268;52.506;13.462;2023-04-24T03:12:52;8.20;;;7.63;;
8462;SDS011;4268;52.506;13.462;2023-04-24T03:15:19;8.07;;;7.47;;
8462;SDS011;4268;52.506;13.462;2023-04-24T03:17:45;7.57;;;7.07;;
8462;SDS011;4268;52.506;13.462;2023-04-24T03:20:11;8.10;;;7.50;;
8462;SDS011;4268;52.506;13.462;2023-04-24T03:22:36;7.77;;;7.27;;
8462;SDS011;4268;52.506;13.462;2023-04-24T03:25:02;7.27;;;6.77;;
8462;SDS011;4268;52.506;13.462;2023-04-24T03:27:27;8.90;;;8.20;;
8462;SDS011;4268;52.506;13.462;2023-04-24T03:29:53;8.47;;;7.77;;
8462;SDS011;4268;52.506;13.462;2023-04-24T03:32:21;8.67;;;8.00;;
8462;SDS011;4268;52.506;13.462;2023-04-24T03:34:47;9.30;;;8.50;;
8462;SDS011;4268;52.506;13.462;2023-04-24T03:37:13;9.93;;;9.03;;
8462;SDS011;4268;52.506;13.462;2023-04-24T03:39:39;10.00;;;9.20;;
8462;SDS011;4268;52.506;13.462;2023-04-24T03:42:05;9.63;;;8.80;;
8462;SDS011;4268;52.506;13.462;2023-04-24T03:44:30;9.90;;;9.00;;
8462;SDS011;4268;52.506;13.462;2023-04-24T03:46:57;9.67;;;8.87;;
8462;SDS011;4268;52.506;13.462;2023-04-24T03:49:23;8.90;;;8.20;;
8462;SDS011;4268;52.506;13.462;2023-04-24T03:51:48;8.40;;;7.80;;
8462;SDS011;4268;52.506;13.462;2023-04-24T03:54:14;10.17;;;9.40;;
8462;SDS011;4268;52.506;13.462;2023-04-24T03:56:39;8.20;;;7.60;;
8462;SDS011;4268;52.506;13.462;2023-04-24T03:59:05;7.23;;;6.70;;
8462;SDS011;4268;52.506;13.462;2023-04-24T04:01:30;7.40;;;6.90;;
8462;SDS011;4268;52.506;13.462;2023-04-24T04:03:56;7.20;;;6.80;;
8462;SDS011;4268;52.506;13.462;2023-04-24T04:06:21;7.07;;;6.57;;
8462;SDS011;4268;52.506;13.462;2023-04-24T04:08:47;7.40;;;6.77;;
8462;SDS011;4268;52.506;13.462;2023-04-24T04:11:12;6.97;;;6.47;;
8462;SDS011;4268;52.506;13.462;2023-04-24T04:13:38;9.87;;;9.27;;
8462;SDS011;4268;52.506;13.462;2023-04-24T04:16:03;7.37;;;6.87;;
8462;SDS011;4268;52.506;13.462;2023-04-24T04:18:29;8.23;;;7.53;;
8462;SDS011;4268;52.506;13.462;2023-04-24T04:20:55;7.83;;;7.23;;
8462;SDS011;4268;52.506;13.462;2023-04-24T04:23:21;7.20;;;6.70;;
8462;SDS011;4268;52.506;13.462;2023-04-24T04:25:47;6.70;;;6.20;;
8462;SDS011;4268;52.506;13.462;2023-04-24T04:28:13;7.30;;;6.70;;
8462;SDS011;4268;52.506;13.462;2023-04-24T04:30:38;7.00;;;6.50;;
8462;SDS011;4268;52.506;13.462;2023-04-24T04:33:05;6.67;;;6.17;;
8462;SDS011;4268;52.506;13.462;2023-04-24T04:35:30;7.13;;;6.53;;
8462;SDS011;4268;52.506;13.462;2023-04-24T04:37:55;7.20;;;6.70;;
8462;SDS011;4268;52.506;13.462;2023-04-24T04:40:23;6.27;;;5.77;;
8462;SDS011;4268;52.506;13.462;2023-04-24T04:42:49;6.93;;;6.43;;
8462;SDS011;4268;52.506;13.462;2023-04-24T04:45:17;27.90;;;26.33;;
8462;SDS011;4268;52.506;13.462;2023-04-24T04:47:43;6.43;;;6.03;;
8462;SDS011;4268;52.506;13.462;2023-04-24T04:50:12;6.53;;;6.07;;
8462;SDS011;4268;52.506;13.462;2023-04-24T04:52:38;7.00;;;6.50;;
8462;SDS011;4268;52.506;13.462;2023-04-24T04:55:04;6.20;;;5.70;;
8462;SDS011;4268;52.506;13.462;2023-04-24T04:57:30;6.73;;;6.23;;
8462;SDS011;4268;52.506;13.462;2023-04-24T04:59:55;6.13;;;5.73;;
8462;SDS011;4268;52.506;13.462;2023-04-24T05:02:21;6.60;;;6.20;;
8462;SDS011;4268;52.506;13.462;2023-04-24T05:04:46;6.57;;;5.97;;
8462;SDS011;4268;52.506;13.462;2023-04-24T05:07:12;7.03;;;6.53;;
8462;SDS011;4268;52.506;13.462;2023-04-24T05:09:38;6.60;;;6.10;;
8462;SDS011;4268;52.506;13.462;2023-04-24T05:12:03;6.27;;;5.77;;
8462;SDS011;4268;52.506;13.462;2023-04-24T05:14:29;6.57;;;6.10;;
8462;SDS011;4268;52.506;13.462;2023-04-24T05:16:54;6.80;;;6.30;;
8462;SDS011;4268;52.506;13.462;2023-04-24T05:19:20;6.30;;;5.90;;
8462;SDS011;4268;52.506;13.462;2023-04-24T05:21:45;6.43;;;5.97;;
8462;SDS011;4268;52.506;13.462;2023-04-24T05:24:11;7.00;;;6.50;;
8462;SDS011;4268;52.506;13.462;2023-04-24T05:26:36;6.87;;;6.37;;
8462;SDS011;4268;52.506;13.462;2023-04-24T05:29:02;6.30;;;5.90;;
8462;SDS011;4268;52.506;13.462;2023-04-24T05:31:28;6.33;;;5.73;;
8462;SDS011;4268;52.506;13.462;2023-04-24T05:33:53;6.87;;;6.40;;
8462;SDS011;4268;52.506;13.462;2023-04-24T05:36:19;6.77;;;6.27;;
8462;SDS011;4268;52.506;13.462;2023-04-24T05:38:44;5.70;;;5.30;;
8462;SDS011;4268;52.506;13.462;2023-04-24T05:41:10;4.80;;;4.50;;
8462;SDS011;4268;52.506;13.462;2023-04-24T05:43:36;4.10;;;3.90;;
8462;SDS011;4268;52.506;13.462;2023-04-24T05:46:01;5.73;;;4.50;;
8462;SDS011;4268;52.506;13.462;2023-04-24T05:48:27;4.20;;;3.90;;
8462;SDS011;4268;52.506;13.462;2023-04-24T05:50:52;5.97;;;3.97;;
8462;SDS011;4268;52.506;13.462;2023-04-24T05:53:18;4.27;;;3.97;;
8462;SDS011;4268;52.506;13.462;2023-04-24T05:55:44;4.40;;;4.00;;
8462;SDS011;4268;52.506;13.462;2023-04-24T05:58:10;4.10;;;3.80;;
8462;SDS011;4268;52.506;13.462;2023-04-24T06:00:36;3.87;;;3.57;;
8462;SDS011;4268;52.506;13.462;2023-04-24T06:03:02;3.63;;;3.40;;
8462;SDS011;4268;52.506;13.462;2023-04-24T06:05:28;4.17;;;3.87;;
8462;SDS011;4268;52.506;13.462;2023-04-24T06:07:55;3.60;;;3.40;;
8462;SDS011;4268;52.506;13.462;2023-04-24T06:10:20;3.20;;;3.00;;
8462;SDS011;4268;52.506;13.462;2023-04-24T06:12:46;3.50;;;3.30;;
8462;SDS011;4268;52.506;13.462;2023-04-24T06:15:11;3.23;;;3.03;;
8462;SDS011;4268;52.506;13.462;2023-04-24T06:17:37;3.47;;;3.17;;
8462;SDS011;4268;52.506;13.462;2023-04-24T06:20:03;3.20;;;3.00;;
8462;SDS011;4268;52.506;13.462;2023-04-24T06:22:30;2.80;;;2.60;;
8462;SDS011;4268;52.506;13.462;2023-04-24T06:24:56;3.47;;;3.13;;
8462;SDS011;4268;52.506;13.462;2023-04-24T06:27:21;2.90;;;2.70;;
8462;SDS011;4268;52.506;13.462;2023-04-24T06:29:47;3.13;;;2.87;;
8462;SDS011;4268;52.506;13.462;2023-04-24T06:32:19;3.10;;;3.00;;
8462;SDS011;4268;52.506;13.462;2023-04-24T06:34:45;3.30;;;2.90;;
8462;SDS011;4268;52.506;13.462;2023-04-24T06:37:10;3.20;;;3.00;;
8462;SDS011;4268;52.506;13.462;2023-04-24T06:39:36;6.03;;;5.57;;
8462;SDS011;4268;52.506;13.462;2023-04-24T06:42:02;4.13;;;3.00;;
8462;SDS011;4268;52.506;13.462;2023-04-24T06:44:28;3.40;;;3.20;;
8462;SDS011;4268;52.506;13.462;2023-04-24T06:46:53;2.75;;;2.40;;
8462;SDS011;4268;52.506;13.462;2023-04-24T06:49:19;4.82;;;3.17;;
8462;SDS011;4268;52.506;13.462;2023-04-24T06:51:45;2.40;;;2.30;;
8462;SDS011;4268;52.506;13.462;2023-04-24T06:54:10;2.83;;;2.63;;
8462;SDS011;4268;52.506;13.462;2023-04-24T06:56:36;4.97;;;4.10;;
8462;SDS011;4268;52.506;13.462;2023-04-24T06:59:01;2.83;;;2.63;;
8462;SDS011;4268;52.506;13.462;2023-04-24T07:01:28;2.47;;;2.38;;
8462;SDS011;4268;52.506;13.462;2023-04-24T07:03:54;2.58;;;2.47;;
8462;SDS011;4268;52.506;13.462;2023-04-24T07:06:20;2.55;;;2.35;;
8462;SDS011;4268;52.506;13.462;2023-04-24T07:08:47;2.30;;;2.20;;
8462;SDS011;4268;52.506;13.462;2023-04-24T07:11:13;2.38;;;2.25;;
8462;SDS011;4268;52.506;13.462;2023-04-24T07:13:41;2.20;;;2.08;;
8462;SDS011;4268;52.506;13.462;2023-04-24T07:16:07;2.33;;;2.10;;
8462;SDS011;4268;52.506;13.462;2023-04-24T07:18:33;2.53;;;2.42;;
8462;SDS011;4268;52.506;13.462;2023-04-24T07:20:59;2.20;;;2.10;;
8462;SDS011;4268;52.506;13.462;2023-04-24T07:23:24;2.50;;;2.30;;
8462;SDS011;4268;52.506;13.462;2023-04-24T07:25:50;2.50;;;2.40;;
8462;SDS011;4268;52.506;13.462;2023-04-24T07:28:15;1.98;;;1.90;;
8462;SDS011;4268;52.506;13.462;2023-04-24T07:30:42;2.33;;;2.22;;
8462;SDS011;4268;52.506;13.462;2023-04-24T07:33:08;1.92;;;1.80;;
8462;SDS011;4268;52.506;13.462;2023-04-24T07:35:38;1.70;;;1.60;;
8462;SDS011;4268;52.506;13.462;2023-04-24T07:38:03;2.38;;;2.28;;
8462;SDS011;4268;52.506;13.462;2023-04-24T07:40:29;2.20;;;2.10;;
8462;SDS011;4268;52.506;13.462;2023-04-24T07:42:55;1.70;;;1.52;;
8462;SDS011;4268;52.506;13.462;2023-04-24T07:45:20;1.43;;;1.43;;
8462;SDS011;4268;52.506;13.462;2023-04-24T07:47:47;1.90;;;1.87;;
8462;SDS011;4268;52.506;13.462;2023-04-24T07:50:15;2.40;;;2.30;;
8462;SDS011;4268;52.506;13.462;2023-04-24T07:52:41;1.73;;;1.60;;
8462;SDS011;4268;52.506;13.462;2023-04-24T07:55:06;2.30;;;2.20;;
8462;SDS011;4268;52.506;13.462;2023-04-24T07:57:32;3.87;;;3.67;;
8462;SDS011;4268;52.506;13.462;2023-04-24T07:59:57;3.40;;;3.30;;
8462;SDS011;4268;52.506;13.462;2023-04-24T08:02:23;3.23;;;2.97;;
8462;SDS011;4268;52.506;13.462;2023-04-24T08:04:51;2.87;;;2.67;;
8462;SDS011;4268;52.506;13.462;2023-04-24T08:07:18;3.47;;;3.20;;
8462;SDS011;4268;52.506;13.462;2023-04-24T08:09:44;2.70;;;2.60;;
8462;SDS011;4268;52.506;13.462;2023-04-24T08:12:09;2.70;;;2.60;;
8462;SDS011;4268;52.506;13.462;2023-04-24T08:14:36;2.50;;;2.40;;
8462;SDS011;4268;52.506;13.462;2023-04-24T08:17:02;2.53;;;2.33;;
8462;SDS011;4268;52.506;13.462;2023-04-24T08:19:28;1.87;;;1.87;;
8462;SDS011;4268;52.506;13.462;2023-04-24T08:21:54;2.50;;;2.40;;
8462;SDS011;4268;52.506;13.462;2023-04-24T08:24:19;1.70;;;1.70;;
8462;SDS011;4268;52.506;13.462;2023-04-24T08:26:45;1.60;;;1.50;;
8462;SDS011;4268;52.506;13.462;2023-04-24T08:29:11;1.70;;;1.70;;
8462;SDS011;4268;52.506;13.462;2023-04-24T08:31:36;1.97;;;1.80;;
8462;SDS011;4268;52.506;13.462;2023-04-24T08:34:02;1.73;;;1.63;;
8462;SDS011;4268;52.506;13.462;2023-04-24T08:36:27;1.90;;;1.80;;
8462;SDS011;4268;52.506;13.462;2023-04-24T08:38:53;2.07;;;1.80;;
8462;SDS011;4268;52.506;13.462;2023-04-24T08:41:18;2.00;;;1.90;;
8462;SDS011;4268;52.506;13.462;2023-04-24T08:43:47;1.70;;;1.60;;
8462;SDS011;4268;52.506;13.462;2023-04-24T08:46:13;2.27;;;2.07;;
8462;SDS011;4268;52.506;13.462;2023-04-24T08:48:41;1.87;;;1.70;;
8462;SDS011;4268;52.506;13.462;2023-04-24T08:51:07;1.40;;;1.40;;
8462;SDS011;4268;52.506;13.462;2023-04-24T08:53:34;1.90;;;1.80;;
8462;SDS011;4268;52.506;13.462;2023-04-24T08:56:00;1.90;;;1.80;;
8462;SDS011;4268;52.506;13.462;2023-04-24T08:58:26;1.83;;;1.73;;
8462;SDS011;4268;52.506;13.462;2023-04-24T09:00:55;1.77;;;1.67;;
8462;SDS011;4268;52.506;13.462;2023-04-24T09:03:22;1.90;;;1.70;;
8462;SDS011;4268;52.506;13.462;2023-04-24T09:05:48;2.20;;;1.67;;
8462;SDS011;4268;52.506;13.462;2023-04-24T09:08:16;1.70;;;1.60;;
8462;SDS011;4268;52.506;13.462;2023-04-24T09:10:42;2.03;;;1.80;;
8462;SDS011;4268;52.506;13.462;2023-04-24T09:13:08;2.10;;;2.00;;
8462;SDS011;4268;52.506;13.462;2023-04-24T09:15:35;2.47;;;2.20;;
8462;SDS011;4268;52.506;13.462;2023-04-24T09:18:04;1.53;;;1.53;;
8462;SDS011;4268;52.506;13.462;2023-04-24T09:20:30;1.73;;;1.63;;
8462;SDS011;4268;52.506;13.462;2023-04-24T09:22:57;2.00;;;1.90;;
8462;SDS011;4268;52.506;13.462;2023-04-24T09:25:23;1.77;;;1.70;;
8462;SDS011;4268;52.506;13.462;2023-04-24T09:27:59;1.47;;;1.40;;
8462;SDS011;4268;52.506;13.462;2023-04-24T09:30:27;1.93;;;1.83;;
8462;SDS011;4268;52.506;13.462;2023-04-24T09:33:09;3.13;;;1.70;;
8462;SDS011;4268;52.506;13.462;2023-04-24T09:35:35;2.07;;;1.97;;
8462;SDS011;4268;52.506;13.462;2023-04-24T09:38:01;1.83;;;1.50;;
8462;SDS011;4268;52.506;13.462;2023-04-24T09:40:26;2.50;;;1.50;;
8462;SDS011;4268;52.506;13.462;2023-04-24T09:42:53;1.90;;;1.80;;
8462;SDS011;4268;52.506;13.462;2023-04-24T09:45:20;2.60;;;1.80;;
8462;SDS011;4268;52.506;13.462;2023-04-24T09:47:46;1.93;;;1.83;;
8462;SDS011;4268;52.506;13.462;2023-04-24T09:50:16;1.73;;;1.73;;
8462;SDS011;4268;52.506;13.462;2023-04-24T09:52:43;1.90;;;1.80;;
8462;SDS011;4268;52.506;13.462;2023-04-24T09:55:19;2.67;;;1.80;;
8462;SDS011;4268;52.506;13.462;2023-04-24T09:57:49;2.20;;;2.00;;
8462;SDS011;4268;52.506;13.462;2023-04-24T10:00:20;1.83;;;1.73;;
8462;SDS011;4268;52.506;13.462;2023-04-24T10:02:57;1.90;;;1.80;;
8462;SDS011;4268;52.506;13.462;2023-04-24T10:05:28;2.20;;;2.00;;
8462;SDS011;4268;52.506;13.462;2023-04-24T10:07:59;2.10;;;2.00;;
8462;SDS011;4268;52.506;13.462;2023-04-24T10:10:28;1.93;;;1.83;;
8462;SDS011;4268;52.506;13.462;2023-04-24T10:12:54;2.07;;;1.97;;
8462;SDS011;4268;52.506;13.462;2023-04-24T10:15:20;1.80;;;1.80;;
8462;SDS011;4268;52.506;13.462;2023-04-24T10:17:50;2.03;;;1.97;;
8462;SDS011;4268;52.506;13.462;2023-04-24T10:20:23;2.07;;;1.97;;
8462;SDS011;4268;52.506;13.462;2023-04-24T10:22:50;1.80;;;1.70;;
8462;SDS011;4268;52.506;13.462;2023-04-24T10:25:21;1.90;;;1.80;;
8462;SDS011;4268;52.506;13.462;2023-04-24T10:27:48;2.10;;;1.70;;
8462;SDS011;4268;52.506;13.462;2023-04-24T10:30:14;1.73;;;1.63;;
8462;SDS011;4268;52.506;13.462;2023-04-24T10:32:40;1.90;;;1.80;;
8462;SDS011;4268;52.506;13.462;2023-04-24T10:35:06;1.83;;;1.83;;
8462;SDS011;4268;52.506;13.462;2023-04-24T10:37:37;2.60;;;2.40;;
8462;SDS011;4268;52.506;13.462;2023-04-24T10:40:26;3.07;;;2.03;;
8462;SDS011;4268;52.506;13.462;2023-04-24T10:42:54;2.37;;;2.27;;
8462;SDS011;4268;52.506;13.462;2023-04-24T10:45:22;2.07;;;1.97;;
8462;SDS011;4268;52.506;13.462;2023-04-24T10:47:52;1.90;;;1.80;;
8462;SDS011;4268;52.506;13.462;2023-04-24T10:50:26;2.47;;;2.03;;
8462;SDS011;4268;52.506;13.462;2023-04-24T10:52:55;2.57;;;2.10;;
8462;SDS011;4268;52.506;13.462;2023-04-24T10:55:41;1.70;;;1.60;;
8462;SDS011;4268;52.506;13.462;2023-04-24T10:58:08;2.97;;;1.80;;
8462;SDS011;4268;52.506;13.462;2023-04-24T11:00:38;1.90;;;1.80;;
8462;SDS011;4268;52.506;13.462;2023-04-24T11:03:06;1.90;;;1.80;;
8462;SDS011;4268;52.506;13.462;2023-04-24T11:05:49;2.10;;;2.00;;
8462;SDS011;4268;52.506;13.462;2023-04-24T11:08:25;2.10;;;2.00;;
8462;SDS011;4268;52.506;13.462;2023-04-24T11:11:02;2.03;;;1.93;;
8462;SDS011;4268;52.506;13.462;2023-04-24T11:16:29;2.33;;;2.10;;
8462;SDS011;4268;52.506;13.462;2023-04-24T11:19:25;1.90;;;1.80;;
8462;SDS011;4268;52.506;13.462;2023-04-24T11:22:13;1.77;;;1.60;;
8462;SDS011;4268;52.506;13.462;2023-04-24T11:24:40;2.30;;;2.20;;
8462;SDS011;4268;52.506;13.462;2023-04-24T11:27:12;1.90;;;1.80;;
8462;SDS011;4268;52.506;13.462;2023-04-24T11:29:41;2.10;;;2.00;;
8462;SDS011;4268;52.506;13.462;2023-04-24T11:32:28;1.70;;;1.60;;
8462;SDS011;4268;52.506;13.462;2023-04-24T11:35:14;2.03;;;1.93;;
8462;SDS011;4268;52.506;13.462;2023-04-24T11:37:46;2.53;;;2.27;;
8462;SDS011;4268;52.506;13.462;2023-04-24T11:40:14;2.43;;;2.23;;
8462;SDS011;4268;52.506;13.462;2023-04-24T11:42:42;2.33;;;2.23;;
8462;SDS011;4268;52.506;13.462;2023-04-24T11:47:55;2.50;;;2.20;;
8462;SDS011;4268;52.506;13.462;2023-04-24T11:50:21;2.37;;;2.10;;
8462;SDS011;4268;52.506;13.462;2023-04-24T11:52:50;2.60;;;2.40;;
8462;SDS011;4268;52.506;13.462;2023-04-24T11:57:43;2.50;;;2.10;;
8462;SDS011;4268;52.506;13.462;2023-04-24T12:00:15;2.63;;;2.30;;
8462;SDS011;4268;52.506;13.462;2023-04-24T12:02:42;3.47;;;2.50;;
8462;SDS011;4268;52.506;13.462;2023-04-24T12:05:07;2.60;;;2.10;;
8462;SDS011;4268;52.506;13.462;2023-04-24T12:07:40;2.30;;;2.20;;
8462;SDS011;4268;52.506;13.462;2023-04-24T12:10:07;2.80;;;2.13;;
8462;SDS011;4268;52.506;13.462;2023-04-24T12:12:34;2.57;;;2.37;;
8462;SDS011;4268;52.506;13.462;2023-04-24T12:14:59;2.13;;;2.03;;
8462;SDS011;4268;52.506;13.462;2023-04-24T12:17:27;2.30;;;2.10;;
8462;SDS011;4268;52.506;13.462;2023-04-24T12:19:57;2.53;;;2.20;;
8462;SDS011;4268;52.506;13.462;2023-04-24T12:22:27;2.07;;;1.97;;
8462;SDS011;4268;52.506;13.462;2023-04-24T12:27:28;2.50;;;2.30;;
8462;SDS011;4268;52.506;13.462;2023-04-24T12:29:56;2.80;;;2.00;;
8462;SDS011;4268;52.506;13.462;2023-04-24T12:32:22;2.30;;;2.10;;
8462;SDS011;4268;52.506;13.462;2023-04-24T12:34:49;2.77;;;1.97;;
8462;SDS011;4268;52.506;13.462;2023-04-24T12:37:15;3.13;;;2.07;;
8462;SDS011;4268;52.506;13.462;2023-04-24T12:39:57;4.63;;;2.43;;
8462;SDS011;4268;52.506;13.462;2023-04-24T12:42:28;1.97;;;1.87;;
8462;SDS011;4268;52.506;13.462;2023-04-24T12:44:58;2.30;;;2.10;;
8462;SDS011;4268;52.506;13.462;2023-04-24T12:47:27;1.87;;;1.83;;
8462;SDS011;4268;52.506;13.462;2023-04-24T12:49:53;3.23;;;1.80;;
8462;SDS011;4268;52.506;13.462;2023-04-24T12:52:20;1.57;;;1.53;;
8462;SDS011;4268;52.506;13.462;2023-04-24T12:54:46;3.03;;;1.90;;
8462;SDS011;4268;52.506;13.462;2023-04-24T12:57:12;1.80;;;1.70;;
8462;SDS011;4268;52.506;13.462;2023-04-24T12:59:37;1.83;;;1.73;;
8462;SDS011;4268;52.506;13.462;2023-04-24T13:02:04;2.03;;;1.93;;
8462;SDS011;4268;52.506;13.462;2023-04-24T13:04:30;2.67;;;1.60;;
8462;SDS011;4268;52.506;13.462;2023-04-24T13:06:55;2.00;;;1.90;;
8462;SDS011;4268;52.506;13.462;2023-04-24T13:09:21;2.43;;;1.80;;
8462;SDS011;4268;52.506;13.462;2023-04-24T13:11:46;2.17;;;2.07;;
8462;SDS011;4268;52.506;13.462;2023-04-24T13:14:12;1.93;;;1.83;;
8462;SDS011;4268;52.506;13.462;2023-04-24T13:16:38;1.83;;;1.73;;
8462;SDS011;4268;52.506;13.462;2023-04-24T13:19:03;1.97;;;1.90;;
8462;SDS011;4268;52.506;13.462;2023-04-24T13:21:29;1.63;;;1.50;;
8462;SDS011;4268;52.506;13.462;2023-04-24T13:23:55;1.80;;;1.70;;
8462;SDS011;4268;52.506;13.462;2023-04-24T13:26:21;1.83;;;1.70;;
8462;SDS011;4268;52.506;13.462;2023-04-24T13:28:46;1.53;;;1.30;;
8462;SDS011;4268;52.506;13.462;2023-04-24T13:31:12;1.70;;;1.50;;
8462;SDS011;4268;52.506;13.462;2023-04-24T13:33:38;2.63;;;1.67;;
8462;SDS011;4268;52.506;13.462;2023-04-24T13:36:04;1.63;;;1.53;;
8462;SDS011;4268;52.506;13.462;2023-04-24T13:38:30;1.97;;;1.87;;
8462;SDS011;4268;52.506;13.462;2023-04-24T13:40:56;1.70;;;1.60;;
8462;SDS011;4268;52.506;13.462;2023-04-24T13:43:21;1.70;;;1.60;;
8462;SDS011;4268;52.506;13.462;2023-04-24T13:45:47;1.60;;;1.50;;
8462;SDS011;4268;52.506;13.462;2023-04-24T13:48:12;2.97;;;1.80;;
8462;SDS011;4268;52.506;13.462;2023-04-24T13:50:40;2.37;;;1.80;;
8462;SDS011;4268;52.506;13.462;2023-04-24T13:53:06;1.53;;;1.43;;
8462;SDS011;4268;52.506;13.462;2023-04-24T13:55:32;2.23;;;1.90;;
8462;SDS011;4268;52.506;13.462;2023-04-24T13:57:57;1.70;;;1.60;;
8462;SDS011;4268;52.506;13.462;2023-04-24T14:00:23;2.57;;;1.80;;
8462;SDS011;4268;52.506;13.462;2023-04-24T14:02:49;2.33;;;1.60;;
8462;SDS011;4268;52.506;13.462;2023-04-24T14:05:15;1.90;;;1.80;;
8462;SDS011;4268;52.506;13.462;2023-04-24T14:07:41;2.17;;;1.80;;
8462;SDS011;4268;52.506;13.462;2023-04-24T14:10:07;2.13;;;1.87;;
8462;SDS011;4268;52.506;13.462;2023-04-24T14:12:33;1.70;;;1.60;;
8462;SDS011;4268;52.506;13.462;2023-04-24T14:14:58;2.00;;;1.70;;
8462;SDS011;4268;52.506;13.462;2023-04-24T14:17:24;1.80;;;1.70;;
8462;SDS011;4268;52.506;13.462;2023-04-24T14:19:50;1.90;;;1.80;;
8462;SDS011;4268;52.506;13.462;2023-04-24T14:22:20;1.83;;;1.70;;
8462;SDS011;4268;52.506;13.462;2023-04-24T14:24:46;2.13;;;1.93;;
8462;SDS011;4268;52.506;13.462;2023-04-24T14:27:12;1.80;;;1.70;;
8462;SDS011;4268;52.506;13.462;2023-04-24T14:29:38;1.83;;;1.73;;
8462;SDS011;4268;52.506;13.462;2023-04-24T14:32:03;1.70;;;1.70;;
8462;SDS011;4268;52.506;13.462;2023-04-24T14:34:29;1.60;;;1.60;;
8462;SDS011;4268;52.506;13.462;2023-04-24T14:36:54;1.70;;;1.70;;
8462;SDS011;4268;52.506;13.462;2023-04-24T14:39:20;1.97;;;1.87;;
8462;SDS011;4268;52.506;13.462;2023-04-24T14:41:46;1.77;;;1.70;;
8462;SDS011;4268;52.506;13.462;2023-04-24T14:44:11;2.40;;;1.90;;
8462;SDS011;4268;52.506;13.462;2023-04-24T14:46:37;2.17;;;1.80;;
8462;SDS011;4268;52.506;13.462;2023-04-24T14:49:02;2.43;;;1.97;;
8462;SDS011;4268;52.506;13.462;2023-04-24T14:51:28;1.90;;;1.80;;
8462;SDS011;4268;52.506;13.462;2023-04-24T14:53:53;2.13;;;2.00;;
8462;SDS011;4268;52.506;13.462;2023-04-24T14:56:19;1.80;;;1.70;;
8462;SDS011;4268;52.506;13.462;2023-04-24T14:58:44;3.03;;;1.80;;
8462;SDS011;4268;52.506;13.462;2023-04-24T15:01:10;2.27;;;2.07;;
8462;SDS011;4268;52.506;13.462;2023-04-24T15:03:36;2.00;;;1.90;;
8462;SDS011;4268;52.506;13.462;2023-04-24T15:06:01;2.10;;;2.00;;
8462;SDS011;4268;52.506;13.462;2023-04-24T15:08:27;2.07;;;1.97;;